createdAt,value
2022-10-17T00:00:45.253Z,15.63
2022-10-17T00:03:13.099Z,15.65
2022-10-17T00:05:42.315Z,15.54
2022-10-17T00:08:10.994Z,15.52
2022-10-17T00:10:39.564Z,15.46
2022-10-17T00:13:07.841Z,15.48
2022-10-17T00:15:35.337Z,15.49
2022-10-17T00:18:03.624Z,15.52
2022-10-17T00:20:32.846Z,15.51
2022-10-17T00:23:00.588Z,15.53
2022-10-17T00:25:28.398Z,15.55
2022-10-17T00:27:55.969Z,15.52
2022-10-17T00:30:23.406Z,15.52
2022-10-17T00:32:51.439Z,15.45
2022-10-17T00:35:18.995Z,15.53
2022-10-17T00:37:46.411Z,15.43
2022-10-17T00:40:14.253Z,15.44
2022-10-17T00:42:41.679Z,15.38
2022-10-17T00:45:24.974Z,15.19
2022-10-17T00:47:59.782Z,15.21
2022-10-17T00:50:28.195Z,15.19
2022-10-17T00:52:59.974Z,15.17
2022-10-17T00:55:29.667Z,15.18
2022-10-17T00:57:58.559Z,15.18
2022-10-17T01:00:26.305Z,15.16
2022-10-17T01:02:53.789Z,15.22
2022-10-17T01:05:22.426Z,15.14
2022-10-17T01:07:51.068Z,15.16
2022-10-17T01:10:19.172Z,15.10
2022-10-17T01:13:01.465Z,15.14
2022-10-17T01:16:18.560Z,15.14
2022-10-17T01:18:52.484Z,15.12
2022-10-17T01:21:55.343Z,15.12
2022-10-17T01:24:48.214Z,15.08
2022-10-17T01:27:30.281Z,15.07
2022-10-17T01:30:17.369Z,15.04
2022-10-17T01:32:48.733Z,15.04
2022-10-17T01:35:26.100Z,15.04
2022-10-17T01:37:59.462Z,15.07
2022-10-17T01:40:33.960Z,15.10
2022-10-17T01:43:13.834Z,15.10
2022-10-17T01:45:52.303Z,15.07
2022-10-17T01:48:25.564Z,15.00
2022-10-17T01:51:08.033Z,14.85
2022-10-17T01:53:39.849Z,14.85
2022-10-17T01:56:08.827Z,14.74
2022-10-17T01:58:47.659Z,14.76
2022-10-17T02:01:15.927Z,14.77
2022-10-17T02:03:45.207Z,14.70
2022-10-17T02:06:12.643Z,14.64
2022-10-17T02:08:42.991Z,14.62
2022-10-17T02:11:26.290Z,14.65
2022-10-17T02:14:14.333Z,14.66
2022-10-17T02:17:20.140Z,14.57
2022-10-17T02:20:14.737Z,14.57
2022-10-17T02:22:54.113Z,14.60
2022-10-17T02:25:29.832Z,14.48
2022-10-17T02:28:09.673Z,14.55
2022-10-17T02:30:44.531Z,14.50
2022-10-17T02:33:19.407Z,14.57
2022-10-17T02:35:52.346Z,14.47
2022-10-17T02:38:21.957Z,14.54
2022-10-17T02:40:51.319Z,14.49
2022-10-17T02:43:19.160Z,14.54
2022-10-17T02:45:46.874Z,14.57
2022-10-17T02:48:39.008Z,14.58
2022-10-17T02:51:18.061Z,14.57
2022-10-17T02:53:54.811Z,14.53
2022-10-17T02:56:22.680Z,14.48
2022-10-17T02:58:56.397Z,14.52
2022-10-17T03:01:24.492Z,14.54
2022-10-17T03:04:05.059Z,14.41
2022-10-17T03:06:32.514Z,14.49
2022-10-17T03:09:00.431Z,14.41
2022-10-17T03:11:28.480Z,14.36
2022-10-17T03:13:56.279Z,14.37
2022-10-17T03:16:24.018Z,14.41
2022-10-17T03:18:51.488Z,14.37
2022-10-17T03:21:18.933Z,14.38
2022-10-17T03:23:46.824Z,14.34
2022-10-17T03:26:14.847Z,14.33
2022-10-17T03:28:42.326Z,14.27
2022-10-17T03:31:12.851Z,14.41
2022-10-17T03:33:40.965Z,14.48
2022-10-17T03:36:10.750Z,14.53
2022-10-17T03:38:38.843Z,14.52
2022-10-17T03:41:07.068Z,14.45
2022-10-17T03:43:35.506Z,14.49
2022-10-17T03:46:03.602Z,14.48
2022-10-17T03:48:32.196Z,14.52
2022-10-17T03:51:07.362Z,14.36
2022-10-17T03:53:35.993Z,14.38
2022-10-17T03:56:24.568Z,14.40
2022-10-17T03:58:52.956Z,14.32
2022-10-17T04:01:21.159Z,14.34
2022-10-17T04:03:50.601Z,14.33
2022-10-17T04:06:19.289Z,14.29
2022-10-17T04:08:47.145Z,14.24
2022-10-17T04:11:17.787Z,14.20
2022-10-17T04:13:46.011Z,14.17
2022-10-17T04:16:16.322Z,14.23
2022-10-17T04:18:45.569Z,14.25
2022-10-17T04:21:13.430Z,14.20
2022-10-17T04:23:40.980Z,14.29
2022-10-17T04:26:09.345Z,14.33
2022-10-17T04:28:37.174Z,14.32
2022-10-17T04:31:07.397Z,14.40
2022-10-17T04:33:36.769Z,14.24
2022-10-17T04:36:13.129Z,14.33
2022-10-17T04:38:41.238Z,14.23
2022-10-17T04:41:14.197Z,14.10
2022-10-17T04:43:44.398Z,14.20
2022-10-17T04:46:15.883Z,14.22
2022-10-17T04:48:45.004Z,14.26
2022-10-17T04:51:15.207Z,14.27
2022-10-17T04:53:44.295Z,14.22
2022-10-17T04:56:22.628Z,14.33
2022-10-17T04:58:50.778Z,14.26
2022-10-17T05:01:20.747Z,14.24
2022-10-17T05:03:49.940Z,14.34
2022-10-17T05:06:22.709Z,14.31
2022-10-17T05:08:52.264Z,14.28
2022-10-17T05:11:28.714Z,14.36
2022-10-17T05:13:57.411Z,14.23
2022-10-17T05:16:25.908Z,14.31
2022-10-17T05:18:55.559Z,14.23
2022-10-17T05:21:24.565Z,14.24
2022-10-17T05:23:54.008Z,14.26
2022-10-17T05:26:22.029Z,14.27
2022-10-17T05:28:49.579Z,14.23
2022-10-17T05:31:17.842Z,14.19
2022-10-17T05:33:45.337Z,14.27
2022-10-17T05:36:13.816Z,14.27
2022-10-17T05:38:41.970Z,14.37
2022-10-17T05:41:10.236Z,14.33
2022-10-17T05:43:38.419Z,14.40
2022-10-17T05:46:06.693Z,14.47
2022-10-17T05:48:34.853Z,14.46
2022-10-17T05:51:05.323Z,14.45
2022-10-17T05:53:39.062Z,14.50
2022-10-17T05:56:09.453Z,14.53
2022-10-17T05:59:00.764Z,14.56
2022-10-17T06:01:28.565Z,14.61
2022-10-17T06:03:56.552Z,14.64
2022-10-17T06:06:25.038Z,14.76
2022-10-17T06:08:52.551Z,14.92
2022-10-17T06:11:20.678Z,15.01
2022-10-17T06:13:48.217Z,15.13
2022-10-17T06:16:16.460Z,15.26
2022-10-17T06:18:45.118Z,15.26
2022-10-17T06:21:15.743Z,15.40
2022-10-17T06:23:43.502Z,15.44
2022-10-17T06:26:12.227Z,15.36
2022-10-17T06:28:40.939Z,15.29
2022-10-17T06:31:10.614Z,15.49
2022-10-17T06:33:38.627Z,15.68
2022-10-17T06:36:07.427Z,15.69
2022-10-17T06:38:35.573Z,15.72
2022-10-17T06:41:10.726Z,15.91
2022-10-17T06:43:38.625Z,15.96
2022-10-17T06:46:06.948Z,16.09
2022-10-17T06:48:34.534Z,15.76
2022-10-17T06:51:06.702Z,15.65
2022-10-17T06:53:38.182Z,15.80
2022-10-17T06:56:07.210Z,15.95
2022-10-17T06:58:39.071Z,15.90
2022-10-17T07:01:12.080Z,16.15
2022-10-17T07:03:40.914Z,16.18
2022-10-17T07:06:10.808Z,16.13
2022-10-17T07:08:43.604Z,16.13
2022-10-17T07:11:19.886Z,16.26
2022-10-17T07:13:48.722Z,16.29
2022-10-17T07:16:16.569Z,16.08
2022-10-17T07:18:44.682Z,15.92
2022-10-17T07:21:12.138Z,15.68
2022-10-17T07:23:41.438Z,16.27
2022-10-17T07:26:11.476Z,16.27
2022-10-17T07:28:41.627Z,16.40
2022-10-17T07:31:15.038Z,16.09
2022-10-17T07:33:43.465Z,16.17
2022-10-17T07:36:11.662Z,16.28
2022-10-17T07:38:39.380Z,16.25
2022-10-17T07:41:08.616Z,16.61
2022-10-17T07:43:36.892Z,16.61
2022-10-17T07:46:05.770Z,16.24
2022-10-17T07:48:33.835Z,16.53
2022-10-17T07:51:05.499Z,16.12
2022-10-17T07:53:35.473Z,15.88
2022-10-17T07:56:07.921Z,16.74
2022-10-17T07:58:36.308Z,16.92
2022-10-17T08:01:06.669Z,17.06
2022-10-17T08:03:36.226Z,16.84
2022-10-17T08:06:04.154Z,16.98
2022-10-17T08:08:31.617Z,16.84
2022-10-17T08:11:05.492Z,17.16
2022-10-17T08:13:33.316Z,17.24
2022-10-17T08:16:07.480Z,17.41
2022-10-17T08:18:35.681Z,17.64
2022-10-17T08:21:08.662Z,17.38
2022-10-17T08:23:36.794Z,17.37
2022-10-17T08:26:08.186Z,17.64
2022-10-17T08:28:36.612Z,17.73
2022-10-17T08:31:10.149Z,17.56
2022-10-17T08:33:38.019Z,17.78
2022-10-17T08:36:06.158Z,17.78
2022-10-17T08:38:35.549Z,17.31
2022-10-17T08:41:07.905Z,17.85
2022-10-17T08:43:44.526Z,18.05
2022-10-17T08:46:12.186Z,17.75
2022-10-17T08:48:46.293Z,17.94
2022-10-17T08:51:21.599Z,18.11
2022-10-17T08:53:54.018Z,18.09
2022-10-17T08:56:48.032Z,17.97
2022-10-17T08:59:30.451Z,18.11
2022-10-17T09:02:01.984Z,18.18
2022-10-17T09:04:51.105Z,18.43
2022-10-17T09:07:42.874Z,18.49
2022-10-17T09:10:42.907Z,17.85
2022-10-17T09:13:25.617Z,18.08
2022-10-17T09:16:18.839Z,18.51
2022-10-17T09:18:49.472Z,18.37
2022-10-17T09:21:38.960Z,18.66
2022-10-17T09:24:15.856Z,18.91
2022-10-17T09:26:45.843Z,18.77
2022-10-17T09:29:23.266Z,18.39
2022-10-17T09:32:00.533Z,18.80
2022-10-17T09:34:29.554Z,19.12
2022-10-17T09:36:59.500Z,19.18
2022-10-17T09:39:29.181Z,19.19
2022-10-17T09:41:58.834Z,19.25
2022-10-17T09:44:33.791Z,19.54
2022-10-17T09:47:16.788Z,19.53
2022-10-17T09:49:46.176Z,19.76
2022-10-17T09:52:22.949Z,19.80
2022-10-17T09:54:53.294Z,19.75
2022-10-17T09:57:21.990Z,19.83
2022-10-17T10:00:00.912Z,20.00
2022-10-17T10:02:31.066Z,20.09
2022-10-17T10:05:04.991Z,20.18
2022-10-17T10:07:37.931Z,20.22
2022-10-17T10:10:08.878Z,20.26
2022-10-17T10:12:38.737Z,20.49
2022-10-17T10:15:33.580Z,20.58
2022-10-17T10:18:01.037Z,20.23
2022-10-17T10:20:35.237Z,20.44
2022-10-17T10:23:18.289Z,20.67
2022-10-17T10:25:57.483Z,20.45
2022-10-17T10:28:31.307Z,20.86
2022-10-17T10:31:01.326Z,21.06
2022-10-17T10:33:30.190Z,20.72
2022-10-17T10:36:01.913Z,20.90
2022-10-17T10:38:32.328Z,20.86
2022-10-17T10:41:09.569Z,20.67
2022-10-17T10:43:48.013Z,20.28
2022-10-17T10:46:28.632Z,21.04
2022-10-17T10:48:59.716Z,21.01
2022-10-17T10:51:42.619Z,21.01
2022-10-17T10:54:28.780Z,21.48
2022-10-17T10:56:59.129Z,21.39
2022-10-17T10:59:29.839Z,21.59
2022-10-17T11:02:05.189Z,21.28
2022-10-17T11:04:47.525Z,21.46
2022-10-17T11:07:29.914Z,21.30
2022-10-17T11:10:05.740Z,21.68
2022-10-17T11:12:46.836Z,21.57
2022-10-17T11:15:33.533Z,20.90
2022-10-17T11:18:03.420Z,21.51
2022-10-17T11:21:03.628Z,21.68
2022-10-17T11:23:45.150Z,21.32
2022-10-17T11:26:25.935Z,21.42
2022-10-17T11:28:54.782Z,21.88
2022-10-17T11:31:25.496Z,21.37
2022-10-17T11:34:04.525Z,21.35
2022-10-17T11:36:38.220Z,20.95
2022-10-17T11:39:10.497Z,21.35
2022-10-17T11:41:43.287Z,21.29
2022-10-17T11:44:25.142Z,21.10
2022-10-17T11:46:57.918Z,21.66
2022-10-17T11:49:31.264Z,21.58
2022-10-17T11:52:07.657Z,21.98
2022-10-17T11:54:43.361Z,21.54
2022-10-17T11:57:30.381Z,21.60
2022-10-17T12:00:09.896Z,21.69
2022-10-17T12:03:09.919Z,22.09
2022-10-17T12:06:09.989Z,22.02
2022-10-17T12:08:55.326Z,22.30
2022-10-17T12:11:53.541Z,22.22
2022-10-17T12:14:35.033Z,22.33
2022-10-17T12:17:03.645Z,22.27
2022-10-17T12:19:37.868Z,22.41
2022-10-17T12:22:20.726Z,22.04
2022-10-17T12:25:00.904Z,21.65
2022-10-17T12:27:32.858Z,22.01
2022-10-17T12:30:22.403Z,21.95
2022-10-17T12:33:13.219Z,22.25
2022-10-17T12:35:41.012Z,22.18
2022-10-17T12:38:21.190Z,22.24
2022-10-17T12:40:54.100Z,22.35
2022-10-17T12:43:27.701Z,22.29
2022-10-17T12:46:02.155Z,22.45
2022-10-17T12:48:38.729Z,22.82
2022-10-17T12:54:03.073Z,22.41
2022-10-17T12:56:44.921Z,22.06
2022-10-17T12:59:23.043Z,22.26
2022-10-17T13:01:53.932Z,22.31
2022-10-17T13:04:21.904Z,22.34
2022-10-17T13:06:54.477Z,22.59
2022-10-17T13:09:25.904Z,22.75
2022-10-17T13:11:54.429Z,22.50
2022-10-17T13:14:23.176Z,22.94
2022-10-17T13:16:53.994Z,22.90
2022-10-17T13:19:42.173Z,22.78
2022-10-17T13:22:31.242Z,22.39
2022-10-17T13:25:09.053Z,22.19
2022-10-17T13:27:37.569Z,22.22
2022-10-17T13:30:20.643Z,22.42
2022-10-17T13:32:48.118Z,22.87
2022-10-17T13:35:31.724Z,23.00
2022-10-17T13:38:12.795Z,22.66
2022-10-17T13:40:49.915Z,22.78
2022-10-17T13:43:20.925Z,22.94
2022-10-17T13:46:32.611Z,22.69
2022-10-17T13:48:58.654Z,23.11
2022-10-17T13:51:27.663Z,23.04
2022-10-17T13:53:55.148Z,23.10
2022-10-17T13:56:28.718Z,22.97
2022-10-17T13:59:18.987Z,23.14
2022-10-17T14:01:49.778Z,23.21
2022-10-17T14:04:20.439Z,23.28
2022-10-17T14:06:49.815Z,23.12
2022-10-17T14:09:25.448Z,23.22
2022-10-17T14:12:07.268Z,22.82
2022-10-17T14:14:58.125Z,22.38
2022-10-17T14:17:25.263Z,22.94
2022-10-17T14:22:50.514Z,22.69
2022-10-17T14:25:29.921Z,22.29
2022-10-17T14:28:08.008Z,22.67
2022-10-17T14:30:55.626Z,22.63
2022-10-17T14:33:27.528Z,23.02
2022-10-17T14:35:58.579Z,22.95
2022-10-17T14:38:26.342Z,22.95
2022-10-17T14:42:04.091Z,22.90
2022-10-17T14:43:57.035Z,23.07
2022-10-17T14:46:24.790Z,23.09
2022-10-17T14:48:54.726Z,23.13
2022-10-17T14:51:22.621Z,23.28
2022-10-17T14:54:05.019Z,23.16
2022-10-17T14:56:40.264Z,23.00
2022-10-17T14:59:13.817Z,23.00
2022-10-17T15:01:45.967Z,23.03
2022-10-17T15:04:13.367Z,23.17
2022-10-17T15:06:41.253Z,22.89
2022-10-17T15:09:10.755Z,22.96
2022-10-17T15:11:38.716Z,22.81
2022-10-17T15:14:06.461Z,23.06
2022-10-17T15:16:35.195Z,22.99
2022-10-17T15:19:02.775Z,22.82
2022-10-17T15:21:47.210Z,22.84
2022-10-17T15:24:52.376Z,22.95
2022-10-17T15:27:24.924Z,22.91
2022-10-17T15:29:53.106Z,22.92
2022-10-17T15:32:21.426Z,22.82
2022-10-17T15:34:49.446Z,22.88
2022-10-17T15:37:23.395Z,22.78
2022-10-17T15:39:55.031Z,22.78
2022-10-17T15:42:27.722Z,22.73
2022-10-17T15:44:57.367Z,22.71
2022-10-17T15:47:36.273Z,22.67
2022-10-17T15:50:06.625Z,22.65
2022-10-17T15:52:34.044Z,22.56
2022-10-17T15:55:04.389Z,22.48
2022-10-17T15:57:37.999Z,22.46
2022-10-17T16:00:16.383Z,22.37
2022-10-17T16:02:45.289Z,22.36
2022-10-17T16:05:23.540Z,22.31
2022-10-17T16:07:52.791Z,22.25
2022-10-17T16:10:21.488Z,22.16
2022-10-17T16:12:50.080Z,22.04
2022-10-17T16:15:25.219Z,22.01
2022-10-17T16:17:54.399Z,21.81
2022-10-17T16:20:24.114Z,21.77
2022-10-17T16:22:59.918Z,21.71
2022-10-17T16:25:29.555Z,21.49
2022-10-17T16:28:00.468Z,21.38
2022-10-17T16:30:30.718Z,21.34
2022-10-17T16:32:58.547Z,21.18
2022-10-17T16:35:31.915Z,21.13
2022-10-17T16:38:23.500Z,21.10
2022-10-17T16:40:51.325Z,21.05
2022-10-17T16:43:19.081Z,20.99
2022-10-17T16:45:46.658Z,20.96
2022-10-17T16:48:14.820Z,20.90
2022-10-17T16:50:43.168Z,20.81
2022-10-17T16:53:10.689Z,20.78
2022-10-17T16:55:38.530Z,20.68
2022-10-17T16:58:06.404Z,20.53
2022-10-17T17:00:33.955Z,20.43
2022-10-17T17:03:01.452Z,20.30
2022-10-17T17:05:29.192Z,20.14
2022-10-17T17:07:56.632Z,20.08
2022-10-17T17:10:24.059Z,20.03
2022-10-17T17:12:51.802Z,19.97
2022-10-17T17:15:19.199Z,19.90
2022-10-17T17:17:53.531Z,19.81
2022-10-17T17:20:23.211Z,19.78
2022-10-17T17:22:51.906Z,19.70
2022-10-17T17:25:19.511Z,19.63
2022-10-17T17:27:47.294Z,19.53
2022-10-17T17:30:14.803Z,19.43
2022-10-17T17:32:42.346Z,19.29
2022-10-17T17:35:10.137Z,19.16
2022-10-17T17:37:37.697Z,19.07
2022-10-17T17:40:06.240Z,18.96
2022-10-17T17:42:33.939Z,18.83
2022-10-17T17:45:01.359Z,18.83
2022-10-17T17:47:29.555Z,18.75
2022-10-17T17:49:57.588Z,18.65
2022-10-17T17:52:25.218Z,18.57
2022-10-17T17:54:52.943Z,18.56
2022-10-17T17:57:20.805Z,18.44
2022-10-17T17:59:52.240Z,18.36
2022-10-17T18:02:19.721Z,18.38
2022-10-17T18:04:48.626Z,18.31
2022-10-17T18:07:16.050Z,18.27
2022-10-17T18:09:43.468Z,18.30
2022-10-17T18:12:11.197Z,18.16
2022-10-17T18:14:38.757Z,18.15
2022-10-17T18:17:06.216Z,18.17
2022-10-17T18:19:34.451Z,18.11
2022-10-17T18:22:02.382Z,18.07
2022-10-17T18:24:30.310Z,18.08
2022-10-17T18:26:59.878Z,18.11
2022-10-17T18:29:29.433Z,18.03
2022-10-17T18:31:56.922Z,18.03
2022-10-17T18:34:25.205Z,17.97
2022-10-17T18:36:53.840Z,17.90
2022-10-17T18:39:21.375Z,17.92
2022-10-17T18:41:49.109Z,17.93
2022-10-17T18:44:16.904Z,17.87
2022-10-17T18:49:15.848Z,17.68
2022-10-17T18:51:43.296Z,17.77
2022-10-17T18:54:20.295Z,17.78
2022-10-17T18:56:51.064Z,17.80
2022-10-17T18:59:19.514Z,17.73
2022-10-17T19:01:47.615Z,17.66
2022-10-17T19:04:15.974Z,17.63
2022-10-17T19:06:43.759Z,17.57
2022-10-17T19:09:12.499Z,17.45
2022-10-17T19:11:40.689Z,17.46
2022-10-17T19:14:13.126Z,17.29
2022-10-17T19:16:46.673Z,17.32
2022-10-17T19:19:17.382Z,17.35
2022-10-17T19:21:45.630Z,17.25
2022-10-17T19:24:16.791Z,17.32
2022-10-17T19:26:45.466Z,17.22
2022-10-17T19:29:14.908Z,17.22
2022-10-17T19:31:42.886Z,17.10
2022-10-17T19:34:11.741Z,17.11
2022-10-17T19:36:40.143Z,17.14
2022-10-17T19:39:12.781Z,17.11
2022-10-17T19:41:42.059Z,17.13
2022-10-17T19:44:09.720Z,17.10
2022-10-17T19:46:37.654Z,17.06
2022-10-17T19:49:07.078Z,17.14
2022-10-17T19:51:34.614Z,17.10
2022-10-17T19:54:02.226Z,17.13
2022-10-17T19:56:32.075Z,16.81
2022-10-17T19:58:59.608Z,16.94
2022-10-17T20:01:29.932Z,16.81
2022-10-17T20:03:57.872Z,16.84
2022-10-17T20:06:25.784Z,16.80
2022-10-17T20:08:53.915Z,16.78
2022-10-17T20:11:23.957Z,16.79
2022-10-17T20:13:52.121Z,16.74
2022-10-17T20:16:24.263Z,16.68
2022-10-17T20:18:54.770Z,16.70
2022-10-17T20:21:27.473Z,16.49
2022-10-17T20:23:55.738Z,16.35
2022-10-17T20:26:37.017Z,16.48
2022-10-17T20:29:11.994Z,16.55
2022-10-17T20:31:40.831Z,16.57
2022-10-17T20:34:11.910Z,16.54
2022-10-17T20:36:39.701Z,16.59
2022-10-17T20:39:07.766Z,16.51
2022-10-17T20:41:35.697Z,16.30
2022-10-17T20:44:03.970Z,16.39
2022-10-17T20:46:44.904Z,16.41
2022-10-17T20:49:20.410Z,16.44
2022-10-17T20:51:47.944Z,16.39
2022-10-17T20:54:15.502Z,16.12
2022-10-17T20:56:43.280Z,16.34
2022-10-17T20:59:14.876Z,16.37
2022-10-17T21:01:42.688Z,16.33
2022-10-17T21:04:40.475Z,16.17
2022-10-17T21:06:58.053Z,16.26
2022-10-17T21:09:25.765Z,16.26
2022-10-17T21:11:55.751Z,16.27
2022-10-17T21:14:24.704Z,16.11
2022-10-17T21:16:52.467Z,16.15
2022-10-17T21:19:21.789Z,15.76
2022-10-17T21:21:49.409Z,15.81
2022-10-17T21:24:19.215Z,15.84
2022-10-17T21:26:50.303Z,15.88
2022-10-17T21:29:18.007Z,15.83
2022-10-17T21:31:45.486Z,15.83
2022-10-17T21:34:15.488Z,15.83
2022-10-17T21:36:43.871Z,15.73
2022-10-17T21:39:12.339Z,15.84
2022-10-17T21:41:40.001Z,15.88
2022-10-17T21:44:12.445Z,15.80
2022-10-17T21:46:40.154Z,15.85
2022-10-17T21:49:09.155Z,15.90
2022-10-17T21:51:36.576Z,15.72
2022-10-17T21:54:05.654Z,15.80
2022-10-17T21:56:34.864Z,15.82
2022-10-17T21:59:03.409Z,15.75
2022-10-17T22:01:40.026Z,15.77
2022-10-17T22:04:11.922Z,15.70
2022-10-17T22:06:41.307Z,15.67
2022-10-17T22:09:21.863Z,15.51
2022-10-17T22:11:52.043Z,15.67
2022-10-17T22:14:21.268Z,15.63
2022-10-17T22:16:49.431Z,15.61
2022-10-17T22:19:19.949Z,15.60
2022-10-17T22:21:47.626Z,15.63
2022-10-17T22:24:16.346Z,15.55
2022-10-17T22:26:44.634Z,15.54
2022-10-17T22:29:12.639Z,15.56
2022-10-17T22:31:40.403Z,15.40
2022-10-17T22:34:08.403Z,15.42
2022-10-17T22:36:36.316Z,15.45
2022-10-17T22:39:04.469Z,15.29
2022-10-17T22:41:31.993Z,15.34
2022-10-17T22:43:59.676Z,15.27
2022-10-17T22:46:27.368Z,15.33
2022-10-17T22:48:54.788Z,15.33
2022-10-17T22:53:55.064Z,15.35
2022-10-17T22:56:23.631Z,15.10
2022-10-17T22:58:51.515Z,15.14
2022-10-17T23:01:22.124Z,15.04
2022-10-17T23:03:51.144Z,15.11
2022-10-17T23:06:19.251Z,15.06
2022-10-17T23:08:47.048Z,15.06
2022-10-17T23:11:15.328Z,14.91
2022-10-17T23:13:42.763Z,15.02
2022-10-17T23:16:10.388Z,15.09
2022-10-17T23:18:38.638Z,15.10
2022-10-17T23:21:06.686Z,15.12
2022-10-17T23:23:34.301Z,15.13
2022-10-17T23:26:13.725Z,15.14
2022-10-17T23:28:42.154Z,15.06
2022-10-17T23:31:18.317Z,15.10
2022-10-17T23:33:47.900Z,15.21
2022-10-17T23:36:17.646Z,15.18
2022-10-17T23:38:46.703Z,15.18
2022-10-17T23:41:14.833Z,15.19
2022-10-17T23:43:43.442Z,14.99
2022-10-17T23:46:10.988Z,15.06
2022-10-17T23:48:38.855Z,15.04
2022-10-17T23:51:07.759Z,15.09
2022-10-17T23:53:36.203Z,15.15
2022-10-17T23:56:04.684Z,15.13
2022-10-17T23:58:32.501Z,15.13
